Time;durP1;ratioP1;P1;durP2;ratioP2;P2;SDS_P1;SDS_P2;PMS_P1;PMS_P2;Temp;Humidity;BMP_temperature;BMP_pressure;BME280_temperature;BME280_humidity;BME280_pressure;Samples;Min_cycle;Max_cycle;Signal;HPM_P1;HPM_P2
2022/12/11 00:02:19;;;;;;;25.33;19.23;;;-0.80;99.90;;;;;;6088601;23;20188;-78
2022/12/11 00:04:46;;;;;;;25.00;19.75;;;-0.80;99.90;;;;;;6089014;23;20215;-78
2022/12/11 00:07:16;;;;;;;25.42;19.73;;;-0.80;99.90;;;;;;6066338;23;20254;-78
2022/12/11 00:09:43;;;;;;;24.98;20.00;;;-0.80;99.90;;;;;;6088393;23;20200;-77
2022/12/11 00:12:10;;;;;;;25.80;20.23;;;-0.70;99.90;;;;;;6065561;23;20278;-78
2022/12/11 00:14:37;;;;;;;27.80;19.48;;;-0.70;99.90;;;;;;6088897;23;20230;-78
2022/12/11 00:17:04;;;;;;;22.83;19.42;;;-0.60;99.90;;;;;;6086088;23;20303;-78
2022/12/11 00:19:31;;;;;;;23.05;19.45;;;-0.50;99.90;;;;;;6087297;23;20267;-78
2022/12/11 00:21:59;;;;;;;22.92;18.45;;;-0.50;99.90;;;;;;6083257;23;20196;-78
2022/12/11 00:24:27;;;;;;;25.05;20.45;;;-0.50;99.90;;;;;;6082799;23;20291;-78
2022/12/11 00:26:54;;;;;;;23.65;18.70;;;-0.40;99.90;;;;;;6086302;23;20220;-78
2022/12/11 00:29:22;;;;;;;23.15;19.48;;;-0.40;99.90;;;;;;6088084;23;20261;-78
2022/12/11 00:31:49;;;;;;;24.80;19.50;;;-0.40;99.90;;;;;;6063805;23;20257;-78
2022/12/11 00:34:16;;;;;;;23.13;18.05;;;-0.30;99.90;;;;;;6086767;23;20267;-78
2022/12/11 00:36:44;;;;;;;23.65;19.30;;;-0.30;99.90;;;;;;6087289;23;20262;-78
2022/12/11 00:39:11;;;;;;;24.70;20.70;;;-0.30;99.90;;;;;;6088581;23;20282;-78
2022/12/11 00:41:39;;;;;;;22.02;16.98;;;-0.20;99.90;;;;;;6090321;23;20192;-78
2022/12/11 00:44:07;;;;;;;21.23;17.67;;;-0.20;99.90;;;;;;6067920;23;20231;-78
2022/12/11 00:46:34;;;;;;;20.73;16.70;;;-0.10;99.90;;;;;;6089855;23;20188;-78
2022/12/11 00:49:01;;;;;;;21.60;17.83;;;-0.10;99.90;;;;;;6087702;23;20200;-78
2022/12/11 00:51:28;;;;;;;25.75;18.77;;;-0.10;99.90;;;;;;6085699;23;20272;-78
2022/12/11 00:53:55;;;;;;;20.92;18.00;;;0.00;99.90;;;;;;6089278;23;20215;-78
2022/12/11 00:56:24;;;;;;;19.90;16.92;;;0.00;99.90;;;;;;6089854;23;20192;-78
2022/12/11 00:58:52;;;;;;;17.33;15.25;;;0.00;99.90;;;;;;6084935;23;20195;-78
2022/12/11 01:01:21;;;;;;;21.92;17.83;;;0.00;99.90;;;;;;6088471;23;20275;-78
2022/12/11 01:03:50;;;;;;;20.13;16.80;;;0.10;99.90;;;;;;6070127;23;20245;-78
2022/12/11 01:06:19;;;;;;;19.13;15.80;;;0.10;99.90;;;;;;6090173;23;20215;-78
2022/12/11 01:08:47;;;;;;;20.25;16.20;;;0.20;99.90;;;;;;6083652;23;20246;-78
2022/12/11 01:11:16;;;;;;;18.65;15.65;;;0.20;99.90;;;;;;6055449;23;20200;-78
2022/12/11 01:13:45;;;;;;;18.38;15.00;;;0.20;99.90;;;;;;6089451;23;20214;-78
2022/12/11 01:16:15;;;;;;;16.83;14.32;;;0.20;99.90;;;;;;6071092;23;20436;-78
2022/12/11 01:18:44;;;;;;;20.85;15.35;;;0.30;99.90;;;;;;6089668;23;20286;-78
2022/12/11 01:21:13;;;;;;;18.35;16.23;;;0.30;99.90;;;;;;6089725;23;20535;-78
2022/12/11 01:23:40;;;;;;;19.80;16.70;;;0.30;99.90;;;;;;6087913;23;20200;-78
2022/12/11 01:26:09;;;;;;;19.02;15.77;;;0.30;99.90;;;;;;6078203;23;20668;-78
2022/12/11 01:28:36;;;;;;;19.17;16.55;;;0.30;99.90;;;;;;6085097;23;20790;-78
2022/12/11 01:31:08;;;;;;;20.27;17.40;;;0.30;99.90;;;;;;6088857;23;20191;-78
2022/12/11 01:33:37;;;;;;;21.75;17.58;;;0.40;99.90;;;;;;6065797;23;20192;-78
2022/12/11 01:36:08;;;;;;;21.58;17.38;;;0.40;99.90;;;;;;6085006;23;20272;-77
2022/12/11 01:38:35;;;;;;;21.48;17.88;;;0.30;99.90;;;;;;6084470;23;20204;-78
2022/12/11 01:41:02;;;;;;;20.75;18.25;;;0.30;99.90;;;;;;6041321;23;20196;-78
2022/12/11 01:43:29;;;;;;;21.80;17.33;;;0.20;99.90;;;;;;6088929;23;20879;-78
2022/12/11 01:45:56;;;;;;;20.75;17.05;;;0.10;99.90;;;;;;6088615;23;20284;-78
2022/12/11 01:48:26;;;;;;;22.75;18.85;;;0.10;99.90;;;;;;6090525;23;20227;-78
2022/12/11 01:50:57;;;;;;;21.65;18.83;;;0.10;99.90;;;;;;6087045;23;20224;-78
2022/12/11 01:53:30;;;;;;;21.42;18.40;;;0.10;99.90;;;;;;6089401;23;20658;-78
2022/12/11 01:55:58;;;;;;;22.55;18.70;;;0.10;99.90;;;;;;6062899;23;20228;-78
2022/12/11 01:58:32;;;;;;;21.35;18.38;;;0.10;99.90;;;;;;6089177;23;20200;-78
2022/12/11 02:01:01;;;;;;;21.67;19.08;;;0.20;99.90;;;;;;6089137;23;20196;-78
2022/12/11 02:03:28;;;;;;;25.10;18.48;;;0.20;99.90;;;;;;6088400;23;20274;-78
2022/12/11 02:06:01;;;;;;;21.70;18.02;;;0.20;99.90;;;;;;6087354;23;20246;-78
2022/12/11 02:08:29;;;;;;;21.27;18.30;;;0.20;99.90;;;;;;6085449;23;20226;-78
2022/12/11 02:11:05;;;;;;;21.70;18.45;;;0.20;99.90;;;;;;6066100;23;20207;-78
2022/12/11 02:13:41;;;;;;;22.38;19.02;;;0.20;99.90;;;;;;6095634;23;20748;-78
2022/12/11 02:16:17;;;;;;;20.90;17.48;;;0.20;99.90;;;;;;6089026;23;20200;-78
2022/12/11 02:18:51;;;;;;;24.33;19.83;;;0.20;99.90;;;;;;6086644;23;20602;-78
2022/12/11 02:21:24;;;;;;;22.48;18.95;;;0.20;99.90;;;;;;6089170;23;20226;-78
2022/12/11 02:24:14;;;;;;;24.60;19.83;;;0.20;99.90;;;;;;6087217;23;20196;-78
2022/12/11 02:26:57;;;;;;;23.17;18.88;;;0.10;99.90;;;;;;6066228;23;20553;-78
2022/12/11 02:29:31;;;;;;;25.58;19.92;;;0.00;99.90;;;;;;6079117;23;20219;-78
2022/12/11 02:32:04;;;;;;;25.65;19.40;;;0.00;99.90;;;;;;6083272;23;20300;-78
2022/12/11 02:34:39;;;;;;;22.23;18.52;;;-0.10;99.90;;;;;;6089248;23;20534;-78
2022/12/11 02:37:10;;;;;;;24.70;19.70;;;-0.10;99.90;;;;;;6089528;23;20267;-78
2022/12/11 02:39:42;;;;;;;23.02;19.20;;;-0.20;99.90;;;;;;6087654;23;20326;-78
2022/12/11 02:42:12;;;;;;;27.70;21.98;;;-0.30;99.90;;;;;;6084840;23;20192;-78
2022/12/11 02:44:41;;;;;;;26.25;20.90;;;-0.30;99.90;;;;;;6089454;23;20192;-78
2022/12/11 02:47:12;;;;;;;24.08;20.23;;;-0.30;99.90;;;;;;6088030;23;20554;-78
2022/12/11 02:49:44;;;;;;;25.38;20.67;;;-0.30;99.90;;;;;;6083938;23;20263;-78
2022/12/11 02:52:14;;;;;;;24.70;20.17;;;-0.30;99.90;;;;;;6088676;23;20195;-78
2022/12/11 02:54:44;;;;;;;25.17;20.92;;;-0.30;99.90;;;;;;6089027;23;20203;-78
2022/12/11 02:57:16;;;;;;;24.40;20.27;;;-0.20;99.90;;;;;;6089052;23;20203;-78
2022/12/11 02:59:46;;;;;;;25.80;20.35;;;-0.20;99.90;;;;;;6086135;23;20219;-78
2022/12/11 03:02:16;;;;;;;22.98;19.80;;;-0.10;99.90;;;;;;6087203;23;20500;-78
2022/12/11 03:04:45;;;;;;;22.85;19.90;;;-0.10;99.90;;;;;;6067509;23;20208;-78
2022/12/11 03:07:16;;;;;;;25.20;20.27;;;-0.10;99.90;;;;;;6072110;23;20268;-78
2022/12/11 03:09:45;;;;;;;22.65;18.90;;;-0.10;99.90;;;;;;6062440;23;20259;-78
2022/12/11 03:12:16;;;;;;;24.35;19.58;;;-0.10;99.90;;;;;;6082368;23;20707;-78
2022/12/11 03:14:44;;;;;;;24.85;19.55;;;-0.10;99.90;;;;;;6086304;23;20287;-78
2022/12/11 03:17:17;;;;;;;23.00;18.90;;;0.00;99.90;;;;;;6085403;23;20573;-78
2022/12/11 03:19:49;;;;;;;24.35;19.50;;;0.00;99.90;;;;;;6089551;23;20196;-78
2022/12/11 03:22:23;;;;;;;23.35;18.02;;;0.10;99.90;;;;;;6065608;23;20293;-78
2022/12/11 03:24:53;;;;;;;23.77;19.88;;;0.10;99.90;;;;;;6064445;23;20200;-79
2022/12/11 03:27:25;;;;;;;30.83;21.08;;;0.10;99.90;;;;;;6089828;23;20223;-78
2022/12/11 03:29:57;;;;;;;22.40;19.15;;;0.10;99.90;;;;;;6085289;23;20192;-78
2022/12/11 03:32:29;;;;;;;24.35;19.40;;;0.10;99.90;;;;;;6088916;23;20670;-78
2022/12/11 03:35:03;;;;;;;25.48;19.67;;;0.10;99.90;;;;;;6067100;23;20748;-78
2022/12/11 03:37:35;;;;;;;23.48;19.25;;;0.10;99.90;;;;;;6087750;23;20271;-78
2022/12/11 03:40:09;;;;;;;24.88;20.48;;;0.10;99.90;;;;;;6088070;23;20283;-78
2022/12/11 03:42:38;;;;;;;23.80;20.02;;;0.10;99.90;;;;;;6042103;23;20196;-78
2022/12/11 03:45:08;;;;;;;27.55;21.48;;;0.10;99.90;;;;;;6084377;23;21739;-78
2022/12/11 03:47:39;;;;;;;25.48;20.60;;;0.10;99.90;;;;;;6076262;23;20716;-77
2022/12/11 03:50:09;;;;;;;23.65;19.45;;;0.10;99.90;;;;;;6089595;23;20199;-78
2022/12/11 03:52:39;;;;;;;26.42;21.90;;;0.10;99.90;;;;;;6089392;23;20667;-78
2022/12/11 03:55:08;;;;;;;24.13;20.30;;;0.00;99.90;;;;;;6087104;23;20685;-78
2022/12/11 03:57:37;;;;;;;23.63;20.35;;;0.00;99.90;;;;;;6081657;23;20685;-78
2022/12/11 04:00:05;;;;;;;24.50;20.92;;;0.00;99.90;;;;;;6077092;23;20283;-78
2022/12/11 04:02:32;;;;;;;27.55;21.20;;;0.00;99.90;;;;;;6073050;23;20196;-77
2022/12/11 04:05:01;;;;;;;28.67;22.05;;;-0.10;99.90;;;;;;6085843;23;20215;-78
2022/12/11 04:07:30;;;;;;;28.20;21.38;;;-0.10;99.90;;;;;;6086510;23;20196;-78
2022/12/11 04:09:57;;;;;;;26.88;23.05;;;-0.10;99.90;;;;;;6060384;23;20738;-78
2022/12/11 04:12:24;;;;;;;28.55;22.35;;;-0.20;99.90;;;;;;6087690;23;20539;-78
2022/12/11 04:15:02;;;;;;;27.67;20.83;;;-0.20;99.90;;;;;;6071692;23;20230;-78
2022/12/11 04:26:05;;;;;;;24.33;18.92;;;-0.40;99.90;;;;;;6071880;23;20204;-78
2022/12/11 04:28:32;;;;;;;23.10;19.98;;;-0.40;99.90;;;;;;6087091;23;20669;-78
2022/12/11 04:31:01;;;;;;;25.60;20.83;;;-0.40;99.90;;;;;;6088365;23;20203;-78
2022/12/11 04:33:28;;;;;;;27.08;20.70;;;-0.40;99.90;;;;;;6066321;23;20242;-78
2022/12/11 04:35:57;;;;;;;24.45;18.73;;;-0.40;99.90;;;;;;6088382;23;20228;-78
2022/12/11 04:38:24;;;;;;;24.75;20.00;;;-0.40;99.90;;;;;;6078425;23;20322;-78
2022/12/11 04:40:58;;;;;;;23.20;19.00;;;-0.30;99.90;;;;;;6069382;23;20287;-78
2022/12/11 04:43:26;;;;;;;23.63;18.50;;;-0.30;99.90;;;;;;6086425;23;20192;-78
2022/12/11 04:46:02;;;;;;;25.77;20.13;;;-0.20;99.90;;;;;;6086780;23;20203;-78
2022/12/11 04:48:30;;;;;;;22.63;18.48;;;-0.10;99.90;;;;;;6088176;23;20349;-78
2022/12/11 04:50:59;;;;;;;22.85;18.25;;;-0.10;99.90;;;;;;6087033;23;20711;-78
2022/12/11 04:53:27;;;;;;;22.23;19.40;;;-0.10;99.90;;;;;;6085592;23;20192;-78
2022/12/11 04:55:55;;;;;;;22.00;18.10;;;-0.10;99.90;;;;;;6086338;23;20223;-78
2022/12/11 04:58:22;;;;;;;21.15;18.70;;;0.00;99.90;;;;;;6087162;23;20682;-78
2022/12/11 05:00:49;;;;;;;21.38;17.85;;;0.00;99.90;;;;;;6088853;23;20275;-78
2022/12/11 05:03:17;;;;;;;21.80;18.05;;;0.00;99.90;;;;;;6087476;23;20232;-78
2022/12/11 05:05:47;;;;;;;23.17;18.52;;;0.00;99.90;;;;;;6086478;23;20300;-78
2022/12/11 05:08:16;;;;;;;20.88;17.58;;;0.10;99.90;;;;;;6088303;23;20204;-78
2022/12/11 05:10:44;;;;;;;23.13;19.17;;;0.00;99.90;;;;;;6079025;23;20283;-78
2022/12/11 05:13:11;;;;;;;20.55;16.80;;;0.10;99.90;;;;;;6075624;23;20193;-78
2022/12/11 05:15:39;;;;;;;20.48;17.08;;;0.10;99.90;;;;;;6087361;23;20275;-78
2022/12/11 05:18:07;;;;;;;21.85;17.85;;;0.00;99.90;;;;;;6087614;23;20275;-78
2022/12/11 05:20:34;;;;;;;21.30;17.55;;;0.00;99.90;;;;;;6096481;23;20196;-78
2022/12/11 05:23:01;;;;;;;25.33;20.17;;;0.00;99.90;;;;;;6092315;23;20200;-78
2022/12/11 05:25:30;;;;;;;26.17;21.08;;;-0.10;99.90;;;;;;6088934;23;20220;-78
2022/12/11 05:27:59;;;;;;;26.20;21.80;;;-0.20;99.90;;;;;;6085634;23;20228;-78
2022/12/11 05:30:26;;;;;;;27.10;21.35;;;-0.20;99.90;;;;;;6087980;23;20228;-78
2022/12/11 05:32:55;;;;;;;26.52;22.20;;;-0.20;99.90;;;;;;6074348;23;20376;-78
2022/12/11 05:35:22;;;;;;;25.80;20.38;;;-0.20;99.90;;;;;;6074029;23;20216;-78
2022/12/11 05:37:49;;;;;;;24.38;20.58;;;-0.20;99.90;;;;;;6089138;23;20196;-78
2022/12/11 05:40:16;;;;;;;25.15;20.23;;;-0.30;99.90;;;;;;6087584;23;20274;-78
2022/12/11 05:42:45;;;;;;;24.98;19.70;;;-0.30;99.90;;;;;;6062653;23;20246;-78
2022/12/11 05:45:12;;;;;;;30.42;22.05;;;-0.40;99.90;;;;;;6088127;23;20621;-78
2022/12/11 05:47:39;;;;;;;27.20;20.92;;;-0.40;99.90;;;;;;6087637;23;20772;-78
2022/12/11 05:50:09;;;;;;;28.92;21.73;;;-0.40;99.90;;;;;;6082524;23;20275;-78
2022/12/11 05:52:37;;;;;;;29.23;22.02;;;-0.50;99.90;;;;;;6080141;23;20894;-78
2022/12/11 05:55:04;;;;;;;28.65;20.85;;;-0.60;99.90;;;;;;6089905;23;20193;-78
2022/12/11 05:57:32;;;;;;;27.40;21.52;;;-0.60;99.90;;;;;;6090660;23;20261;-78
2022/12/11 06:00:01;;;;;;;30.15;23.00;;;-0.60;99.90;;;;;;6067920;23;20193;-78
2022/12/11 06:02:28;;;;;;;23.90;19.63;;;-0.60;99.90;;;;;;6092250;23;20612;-77
2022/12/11 06:04:55;;;;;;;26.58;20.33;;;-0.70;99.90;;;;;;6090667;23;20314;-77
2022/12/11 06:07:22;;;;;;;27.58;21.13;;;-0.70;99.90;;;;;;6086281;23;20228;-77
2022/12/11 06:09:50;;;;;;;28.00;22.45;;;-0.70;99.90;;;;;;6091781;23;20212;-78
2022/12/11 06:12:18;;;;;;;25.35;20.00;;;-0.70;99.90;;;;;;6086755;23;20255;-77
2022/12/11 06:14:45;;;;;;;26.98;21.58;;;-0.80;99.90;;;;;;6056352;23;20227;-78
2022/12/11 06:17:14;;;;;;;23.77;19.50;;;-0.80;99.90;;;;;;6073939;23;20192;-78
2022/12/11 06:19:43;;;;;;;27.00;19.75;;;-0.90;99.90;;;;;;6084293;23;20250;-78
2022/12/11 06:22:10;;;;;;;28.27;20.38;;;-0.90;99.90;;;;;;6081123;23;20195;-78
2022/12/11 06:24:37;;;;;;;25.48;20.25;;;-0.90;99.90;;;;;;6038635;23;20193;-78
2022/12/11 06:27:05;;;;;;;28.92;22.23;;;-1.00;99.90;;;;;;6079693;23;20196;-78
2022/12/11 06:29:33;;;;;;;30.45;24.00;;;-1.10;99.90;;;;;;6077079;23;20204;-78
2022/12/11 06:32:01;;;;;;;30.02;23.48;;;-1.20;99.90;;;;;;6071119;23;20222;-77
2022/12/11 06:34:32;;;;;;;29.80;24.48;;;-1.30;99.90;;;;;;6057509;23;20192;-77
2022/12/11 06:37:00;;;;;;;29.95;24.80;;;-1.30;99.90;;;;;;6074144;23;20198;-77
2022/12/11 06:39:29;;;;;;;35.88;26.27;;;-1.30;99.90;;;;;;6082045;23;20204;-76
2022/12/11 06:41:59;;;;;;;45.30;28.08;;;-1.40;99.90;;;;;;6083125;23;20259;-77
2022/12/11 06:44:30;;;;;;;37.53;27.58;;;-1.40;99.90;;;;;;6088953;23;20192;-77
2022/12/11 06:46:58;;;;;;;31.25;23.70;;;-1.40;99.90;;;;;;6080593;23;20228;-76
2022/12/11 06:49:27;;;;;;;37.50;27.15;;;-1.40;99.90;;;;;;6076601;23;20201;-77
2022/12/11 06:51:56;;;;;;;32.30;24.33;;;-1.30;99.90;;;;;;6090960;23;20650;-77
2022/12/11 06:54:25;;;;;;;28.92;22.83;;;-1.30;99.90;;;;;;6100416;23;20194;-77
2022/12/11 06:56:53;;;;;;;30.60;23.50;;;-1.20;99.90;;;;;;6080945;23;20630;-77
2022/12/11 06:59:20;;;;;;;31.75;23.92;;;-1.20;99.90;;;;;;6074930;23;20204;-77
2022/12/11 07:01:47;;;;;;;32.08;23.88;;;-1.20;99.90;;;;;;6083523;23;20282;-77
2022/12/11 07:04:14;;;;;;;30.17;21.80;;;-1.10;99.90;;;;;;6083325;23;20305;-77
2022/12/11 07:06:42;;;;;;;29.75;22.67;;;-1.00;99.90;;;;;;6072324;23;20244;-77
2022/12/11 07:09:13;;;;;;;26.70;21.38;;;-0.90;99.90;;;;;;6075983;23;20295;-77
2022/12/11 07:11:40;;;;;;;29.30;22.35;;;-0.90;99.90;;;;;;6045413;23;20652;-77
2022/12/11 07:14:07;;;;;;;28.75;22.77;;;-0.80;99.90;;;;;;6080744;23;20672;-77
2022/12/11 07:16:35;;;;;;;30.50;21.45;;;-0.80;99.90;;;;;;6075865;23;20599;-77
2022/12/11 07:19:02;;;;;;;26.05;20.45;;;-0.80;99.90;;;;;;6090928;23;20192;-77
2022/12/11 07:21:29;;;;;;;28.77;21.23;;;-0.80;99.90;;;;;;6089464;23;20888;-77
2022/12/11 07:23:57;;;;;;;26.25;21.55;;;-0.70;99.90;;;;;;6081974;23;20192;-75
2022/12/11 07:26:26;;;;;;;25.40;21.05;;;-0.70;99.90;;;;;;6090197;23;20188;-77
2022/12/11 07:28:56;;;;;;;27.90;21.70;;;-0.70;99.90;;;;;;6079981;23;20210;-77
2022/12/11 07:31:25;;;;;;;25.77;20.67;;;-0.60;99.90;;;;;;6086116;23;20192;-77
2022/12/11 07:33:54;;;;;;;27.52;20.25;;;-0.60;99.90;;;;;;6082681;23;20188;-77
2022/12/11 07:36:22;;;;;;;25.50;19.70;;;-0.50;99.90;;;;;;6085446;23;20201;-78
2022/12/11 07:38:50;;;;;;;26.38;20.40;;;-0.50;99.90;;;;;;6091606;23;20204;-77
2022/12/11 07:41:17;;;;;;;29.23;19.90;;;-0.50;99.90;;;;;;6077366;23;20219;-78
2022/12/11 07:43:46;;;;;;;25.08;19.77;;;-0.50;99.90;;;;;;6083585;23;20744;-78
2022/12/11 07:46:16;;;;;;;32.30;22.63;;;-0.50;99.90;;;;;;6056165;23;20290;-78
2022/12/11 07:48:45;;;;;;;30.88;22.15;;;-0.40;99.90;;;;;;6085651;23;20282;-76
2022/12/11 07:51:14;;;;;;;30.38;23.73;;;-0.40;99.90;;;;;;6084860;23;20262;-78
2022/12/11 07:53:42;;;;;;;32.22;22.40;;;-0.40;99.90;;;;;;6070773;23;20192;-78
2022/12/11 07:56:10;;;;;;;28.90;21.35;;;-0.40;99.90;;;;;;6082069;23;20264;-77
2022/12/11 07:58:38;;;;;;;29.42;21.92;;;-0.40;99.90;;;;;;6079108;23;20508;-78
2022/12/11 08:01:11;;;;;;;30.00;20.40;;;-0.30;99.90;;;;;;6083895;23;20657;-78
2022/12/11 08:03:40;;;;;;;26.98;21.17;;;-0.30;99.90;;;;;;6064608;23;20254;-78
2022/12/11 08:06:07;;;;;;;30.08;22.15;;;-0.30;99.90;;;;;;6083297;23;20260;-78
2022/12/11 08:08:35;;;;;;;31.58;22.25;;;-0.20;99.90;;;;;;6057673;23;20630;-77
2022/12/11 08:11:02;;;;;;;29.80;21.45;;;-0.20;99.90;;;;;;6056399;23;20375;-77
2022/12/11 08:13:34;;;;;;;33.50;24.25;;;-0.20;99.90;;;;;;6067271;23;20249;-77
2022/12/11 08:16:04;;;;;;;31.40;22.58;;;-0.20;99.90;;;;;;6055382;23;20223;-78
2022/12/11 08:18:33;;;;;;;28.27;20.45;;;-0.10;99.90;;;;;;6098136;23;20223;-78
2022/12/11 08:21:04;;;;;;;28.73;21.63;;;-0.10;99.90;;;;;;6084448;23;20222;-78
2022/12/11 08:23:32;;;;;;;28.98;22.67;;;0.00;99.90;;;;;;6097603;23;20218;-78
2022/12/11 08:26:02;;;;;;;27.33;20.70;;;0.00;99.90;;;;;;6094915;23;20220;-78
2022/12/11 08:28:29;;;;;;;30.00;21.92;;;0.10;99.90;;;;;;6091154;23;20200;-78
2022/12/11 08:30:57;;;;;;;30.63;22.35;;;0.20;99.90;;;;;;6095506;23;20227;-78
2022/12/11 08:33:24;;;;;;;29.75;21.50;;;0.20;99.90;;;;;;6087455;23;20219;-78
2022/12/11 08:35:52;;;;;;;23.95;17.45;;;0.20;99.90;;;;;;6085745;23;20193;-84
2022/12/11 08:38:22;;;;;;;29.15;21.80;;;0.30;99.90;;;;;;6089421;23;20200;-79
2022/12/11 08:40:49;;;;;;;30.08;21.85;;;0.50;99.90;;;;;;6091047;23;20638;-80
2022/12/11 08:43:17;;;;;;;27.27;19.95;;;0.50;99.90;;;;;;6094117;23;20268;-80
2022/12/11 08:45:46;;;;;;;26.05;18.95;;;0.40;99.90;;;;;;6084705;23;20212;-80
2022/12/11 08:48:13;;;;;;;26.23;18.80;;;0.30;99.90;;;;;;6060930;23;20262;-81
2022/12/11 08:50:40;;;;;;;26.27;20.20;;;0.30;99.90;;;;;;6088171;23;20311;-80
2022/12/11 08:53:11;;;;;;;25.70;20.10;;;0.20;99.90;;;;;;6087721;23;20188;-80
2022/12/11 08:55:38;;;;;;;25.85;19.15;;;0.20;99.90;;;;;;6059761;23;20630;-80
2022/12/11 08:58:05;;;;;;;25.70;19.33;;;0.10;99.90;;;;;;6076891;23;20243;-80
2022/12/11 09:00:33;;;;;;;26.65;20.00;;;0.00;99.90;;;;;;6093006;23;20203;-81
2022/12/11 09:03:00;;;;;;;23.33;16.80;;;0.00;99.90;;;;;;6086437;23;20195;-81
2022/12/11 09:05:27;;;;;;;23.80;18.70;;;0.00;99.90;;;;;;6085406;23;20223;-81
2022/12/11 09:07:55;;;;;;;27.13;20.33;;;0.00;99.90;;;;;;6061800;23;20197;-79
2022/12/11 09:10:23;;;;;;;26.42;20.77;;;0.00;99.90;;;;;;6087895;23;20214;-80
2022/12/11 09:12:51;;;;;;;29.45;22.00;;;0.00;99.90;;;;;;6087663;23;20634;-79
2022/12/11 09:15:19;;;;;;;29.60;21.92;;;0.00;99.90;;;;;;6082777;23;20196;-80
2022/12/11 09:17:48;;;;;;;29.48;21.40;;;0.00;99.90;;;;;;6065811;23;20267;-79
2022/12/11 09:20:15;;;;;;;29.50;22.65;;;-0.10;99.90;;;;;;6083054;23;20193;-80
2022/12/11 09:22:42;;;;;;;32.45;22.85;;;-0.10;99.90;;;;;;6067054;23;20672;-80
2022/12/11 09:25:09;;;;;;;29.73;22.70;;;-0.10;99.90;;;;;;6089771;23;20194;-80
2022/12/11 09:27:38;;;;;;;31.55;23.33;;;0.00;99.90;;;;;;6092703;23;20188;-80
2022/12/11 09:30:08;;;;;;;29.92;22.55;;;0.10;99.90;;;;;;6095045;23;20301;-78
2022/12/11 09:32:35;;;;;;;27.90;22.05;;;0.20;99.90;;;;;;6086849;23;20221;-79
2022/12/11 09:35:02;;;;;;;24.67;19.05;;;0.30;99.90;;;;;;6089021;23;20189;-78
2022/12/11 09:37:29;;;;;;;22.67;19.25;;;0.40;99.90;;;;;;6077916;23;20231;-79
2022/12/11 09:39:57;;;;;;;22.45;19.02;;;0.50;99.90;;;;;;6084685;23;20244;-78
2022/12/11 09:42:32;;;;;;;18.95;16.13;;;0.60;99.90;;;;;;6092805;23;20316;-85
2022/12/11 09:45:05;;;;;;;20.17;16.50;;;0.70;99.90;;;;;;6062284;23;20196;-79
2022/12/11 09:47:35;;;;;;;21.92;17.08;;;0.80;99.90;;;;;;6076084;23;20202;-79
2022/12/11 09:50:10;;;;;;;20.17;16.52;;;0.90;99.90;;;;;;6096407;23;20269;-80
2022/12/11 09:52:48;;;;;;;19.27;16.45;;;1.00;99.90;;;;;;6093194;23;20226;-80
2022/12/11 09:55:19;;;;;;;18.42;15.05;;;1.10;99.90;;;;;;6097315;23;20256;-80
2022/12/11 09:57:54;;;;;;;16.85;15.00;;;1.10;99.90;;;;;;6096618;23;20196;-79
2022/12/11 10:00:30;;;;;;;21.08;16.50;;;1.20;99.90;;;;;;6087162;23;20707;-80
2022/12/11 10:03:25;;;;;;;20.58;18.27;;;1.10;99.90;;;;;;6073321;23;20217;-79
2022/12/11 10:06:00;;;;;;;20.17;16.42;;;1.10;99.90;;;;;;6089760;23;20204;-80
2022/12/11 10:08:33;;;;;;;18.63;15.60;;;1.10;99.90;;;;;;6060938;23;20192;-80
2022/12/11 10:11:19;;;;;;;20.52;17.40;;;1.20;99.90;;;;;;6097853;23;20228;-79
2022/12/11 10:13:57;;;;;;;24.08;18.90;;;1.20;99.90;;;;;;6087367;23;20193;-79
2022/12/11 10:16:38;;;;;;;21.60;17.95;;;1.20;99.90;;;;;;6079644;23;20220;-80
2022/12/11 10:19:10;;;;;;;23.58;18.98;;;1.30;99.90;;;;;;6096050;23;20197;-79
2022/12/11 10:21:41;;;;;;;22.80;18.55;;;1.30;99.90;;;;;;6092028;23;20216;-79
2022/12/11 10:24:16;;;;;;;21.60;17.45;;;1.40;99.90;;;;;;6080617;23;20256;-79
2022/12/11 10:26:45;;;;;;;23.17;18.65;;;1.40;99.90;;;;;;6078272;23;20200;-80
2022/12/11 10:29:14;;;;;;;24.05;19.33;;;1.50;99.90;;;;;;6078940;23;20265;-80
2022/12/11 10:31:50;;;;;;;21.85;19.27;;;1.50;99.90;;;;;;6078144;23;20292;-80
2022/12/11 10:34:26;;;;;;;21.42;17.63;;;1.50;99.90;;;;;;6069517;23;20585;-80
2022/12/11 10:36:55;;;;;;;22.38;18.00;;;1.50;99.90;;;;;;6076877;23;20223;-80
2022/12/11 10:39:23;;;;;;;21.05;17.23;;;1.60;99.90;;;;;;6063680;23;20201;-80
2022/12/11 10:41:53;;;;;;;21.92;17.90;;;1.50;99.90;;;;;;6059172;23;20527;-81
2022/12/11 10:44:23;;;;;;;21.15;17.60;;;1.60;99.90;;;;;;6082723;23;20200;-80
2022/12/11 10:47:05;;;;;;;21.15;18.13;;;1.50;99.90;;;;;;6054967;23;20197;-81
2022/12/11 10:49:34;;;;;;;19.23;16.23;;;1.60;99.90;;;;;;6047080;23;20201;-80
2022/12/11 10:52:09;;;;;;;21.58;18.00;;;1.50;99.90;;;;;;6077469;23;20216;-81
2022/12/11 10:54:38;;;;;;;20.40;18.33;;;1.50;99.90;;;;;;6062685;23;20599;-80
2022/12/11 10:57:12;;;;;;;21.92;17.73;;;1.60;99.90;;;;;;6070503;23;20265;-80
2022/12/11 10:59:46;;;;;;;21.63;17.35;;;1.60;99.90;;;;;;6095946;23;20219;-80
2022/12/11 11:02:23;;;;;;;19.88;17.17;;;1.70;99.90;;;;;;6078606;23;20374;-80
2022/12/11 11:04:51;;;;;;;18.83;16.77;;;1.80;99.90;;;;;;6090594;23;20460;-80
2022/12/11 11:07:22;;;;;;;18.10;15.60;;;1.90;99.90;;;;;;6083775;23;20285;-80
2022/12/11 11:09:53;;;;;;;17.10;14.70;;;2.00;99.90;;;;;;6076354;23;20198;-80
2022/12/11 11:12:23;;;;;;;17.40;15.50;;;2.10;99.90;;;;;;6074597;23;20203;-80
2022/12/11 11:15:01;;;;;;;17.58;13.80;;;2.20;99.90;;;;;;6088702;23;20606;-80
2022/12/11 11:17:32;;;;;;;16.70;14.90;;;2.30;99.90;;;;;;6079095;23;20226;-80
2022/12/11 11:20:04;;;;;;;19.02;15.27;;;2.30;99.90;;;;;;6061192;23;20194;-79
2022/12/11 11:22:33;;;;;;;17.27;15.43;;;2.30;99.90;;;;;;6078680;23;20195;-80
2022/12/11 11:25:00;;;;;;;19.38;14.95;;;2.20;99.90;;;;;;6087477;23;20196;-80
2022/12/11 11:27:32;;;;;;;18.42;15.60;;;2.00;99.90;;;;;;6049398;23;20758;-80
2022/12/11 11:30:02;;;;;;;20.15;15.70;;;1.90;99.90;;;;;;6084277;23;20207;-80
2022/12/11 11:32:33;;;;;;;19.83;16.00;;;1.90;99.90;;;;;;6080661;23;20303;-79
2022/12/11 11:35:23;;;;;;;18.30;15.77;;;1.90;99.90;;;;;;6078425;23;20493;-80
2022/12/11 11:38:00;;;;;;;17.08;15.13;;;2.00;99.90;;;;;;6086600;23;20269;-79
2022/12/11 11:40:31;;;;;;;17.00;14.10;;;1.90;99.90;;;;;;6090497;23;20581;-80
2022/12/11 11:43:14;;;;;;;19.80;15.05;;;1.80;99.90;;;;;;6081187;23;20196;-80
2022/12/11 11:45:46;;;;;;;19.52;15.35;;;1.80;99.90;;;;;;6073273;23;20220;-80
2022/12/11 11:48:36;;;;;;;16.40;14.38;;;1.70;99.90;;;;;;6079314;23;20228;-80
2022/12/11 11:51:14;;;;;;;14.50;11.65;;;1.80;99.90;;;;;;6079518;23;20219;-80
2022/12/11 11:53:41;;;;;;;17.20;13.10;;;1.80;99.90;;;;;;6083325;23;20505;-80
2022/12/11 11:56:21;;;;;;;15.43;12.63;;;1.80;99.90;;;;;;6089355;23;20197;-80
2022/12/11 11:58:55;;;;;;;17.35;13.25;;;1.90;99.90;;;;;;6084370;23;20197;-80
2022/12/11 12:01:25;;;;;;;18.85;14.95;;;2.00;99.90;;;;;;6085025;23;20686;-78
2022/12/11 12:03:53;;;;;;;20.48;15.35;;;2.00;99.90;;;;;;6082286;23;20193;-77
2022/12/11 12:06:41;;;;;;;19.65;15.55;;;1.90;99.90;;;;;;6086634;23;20202;-78
2022/12/11 12:09:19;;;;;;;19.23;15.10;;;1.90;99.90;;;;;;6075000;23;20197;-78
2022/12/11 12:11:52;;;;;;;20.67;15.70;;;1.90;99.90;;;;;;6075430;23;20211;-80
2022/12/11 12:14:24;;;;;;;18.08;14.57;;;1.80;99.90;;;;;;6087706;23;20283;-80
2022/12/11 12:17:06;;;;;;;21.33;16.50;;;1.80;99.90;;;;;;6083270;23;20607;-80
2022/12/11 12:19:44;;;;;;;21.13;16.02;;;1.70;99.90;;;;;;6072218;23;20205;-80
2022/12/11 12:22:33;;;;;;;20.05;15.68;;;1.80;99.90;;;;;;6088269;23;20515;-80
2022/12/11 12:25:07;;;;;;;19.83;15.45;;;1.80;99.90;;;;;;6077237;23;20554;-80
2022/12/11 12:27:42;;;;;;;22.02;16.48;;;2.00;99.90;;;;;;6086649;23;20614;-80
2022/12/11 12:30:14;;;;;;;20.27;16.58;;;2.10;99.90;;;;;;6067869;23;20273;-80
2022/12/11 12:32:52;;;;;;;21.58;17.42;;;2.20;99.90;;;;;;6071590;23;20221;-80
2022/12/11 12:35:35;;;;;;;20.05;16.73;;;2.30;99.90;;;;;;6080154;23;20284;-80
2022/12/11 12:38:11;;;;;;;19.27;16.27;;;2.30;99.90;;;;;;6083456;23;20207;-80
2022/12/11 12:40:50;;;;;;;22.50;16.95;;;2.30;99.90;;;;;;6092171;23;20696;-78
2022/12/11 12:43:32;;;;;;;21.35;17.23;;;2.40;99.90;;;;;;6078610;23;20367;-78
2022/12/11 12:46:09;;;;;;;22.25;16.70;;;2.50;99.90;;;;;;6071611;23;20200;-77
2022/12/11 12:48:36;;;;;;;22.10;16.38;;;2.50;99.90;;;;;;6087494;23;20218;-78
2022/12/11 12:51:06;;;;;;;20.00;17.15;;;2.60;99.90;;;;;;6083593;23;20770;-78
2022/12/11 12:53:36;;;;;;;33.90;23.95;;;2.70;99.90;;;;;;6087657;23;20281;-77
2022/12/11 12:56:04;;;;;;;31.20;22.02;;;2.80;99.90;;;;;;6080580;23;20538;-78
2022/12/11 12:58:42;;;;;;;22.67;19.95;;;3.00;99.90;;;;;;6073239;23;20276;-78